Time;durP1;ratioP1;P1;durP2;ratioP2;P2;SDS_P1;SDS_P2;PMS_P1;PMS_P2;Temp;Humidity;BMP_temperature;BMP_pressure;BME280_temperature;BME280_humidity;BME280_pressure;Samples;Min_cycle;Max_cycle;Signal;HPM_P1;HPM_P2
2021/12/14 00:01:22;;;;;;;12.23;6.40;;;;;;;2.31;100.00;96527.34;4861730;29;20219;-83
2021/12/14 00:03:51;;;;;;;11.57;6.40;;;;;;;2.36;100.00;96531.34;4878112;29;20184;-84
2021/12/14 00:06:19;;;;;;;14.07;7.67;;;;;;;2.37;100.00;96530.44;4861141;29;20207;-84
2021/12/14 00:08:55;;;;;;;14.27;6.80;;;;;;;2.40;100.00;96538.00;4861498;29;20529;-84
2021/12/14 00:11:46;;;;;;;20.10;7.23;;;;;;;2.35;100.00;96531.41;4862289;29;20190;-84
2021/12/14 00:15:03;;;;;;;17.30;6.83;;;;;;;2.45;100.00;96536.00;4863720;29;20199;-84
2021/12/14 00:17:21;;;;;;;32.80;8.93;;;;;;;2.49;100.00;96536.72;4889246;29;20209;-84
2021/12/14 00:19:50;;;;;;;36.17;10.67;;;;;;;2.50;100.00;96534.06;4861483;29;20188;-84
2021/12/14 00:22:29;;;;;;;24.33;11.07;;;;;;;2.59;100.00;96539.66;4859913;29;20592;-84
2021/12/14 00:24:55;;;;;;;27.97;9.83;;;;;;;2.61;100.00;96545.53;4878170;29;20208;-85
2021/12/14 00:27:23;;;;;;;76.17;11.73;;;;;;;2.57;100.00;96541.47;4879521;29;20211;-83
2021/12/14 00:29:53;;;;;;;50.97;9.87;;;;;;;2.58;100.00;96536.28;4864687;29;20207;-84
2021/12/14 00:32:22;;;;;;;184.03;15.70;;;;;;;2.60;100.00;96554.97;4879048;29;20668;-84
2021/12/14 00:34:58;;;;;;;75.17;11.13;;;;;;;2.58;100.00;96543.97;4863923;29;20559;-84
2021/12/14 00:37:33;;;;;;;23.37;8.00;;;;;;;2.62;100.00;96550.59;4849327;29;20187;-84
2021/12/14 00:40:02;;;;;;;117.70;13.30;;;;;;;2.58;100.00;96561.09;4864926;29;20558;-83
2021/12/14 00:42:39;;;;;;;53.30;10.03;;;;;;;2.63;100.00;96561.69;4862746;29;20196;-83
2021/12/14 00:45:11;;;;;;;87.77;12.00;;;;;;;2.69;100.00;96559.66;4864542;29;20232;-83
2021/12/14 00:47:39;;;;;;;59.33;10.73;;;;;;;2.72;100.00;96563.78;4880382;29;20228;-83
2021/12/14 00:50:24;;;;;;;59.47;11.60;;;;;;;2.73;100.00;96570.56;4864057;29;20227;-84
2021/12/14 00:52:52;;;;;;;221.23;17.50;;;;;;;2.69;100.00;96569.06;4864432;29;20204;-84
2021/12/14 00:55:22;;;;;;;171.03;16.57;;;;;;;2.72;100.00;96564.63;4886239;29;20203;-83
2021/12/14 00:57:54;;;;;;;73.53;13.00;;;;;;;2.74;100.00;96567.97;4887763;29;20209;-83
2021/12/14 01:00:25;;;;;;;63.53;9.83;;;;;;;2.76;100.00;96570.44;4870615;29;20279;-84
2021/12/14 01:03:01;;;;;;;106.13;12.70;;;;;;;2.73;100.00;96571.41;4865635;29;20199;-85
2021/12/14 01:05:32;;;;;;;58.67;9.90;;;;;;;2.71;100.00;96572.38;4864932;29;20215;-84
2021/12/14 01:08:01;;;;;;;141.57;13.33;;;;;;;2.68;100.00;96565.69;4865771;29;20199;-84
2021/12/14 01:10:36;;;;;;;112.80;13.70;;;;;;;2.69;100.00;96567.34;4865536;29;20287;-84
2021/12/14 01:13:09;;;;;;;138.87;12.77;;;;;;;2.67;100.00;96571.72;4879148;29;20806;-84
2021/12/14 01:21:39;;;;;;;71.73;10.47;;;;;;;2.75;100.00;96579.06;4880263;29;20191;-84
2021/12/14 01:24:21;;;;;;;123.77;11.47;;;;;;;2.69;100.00;96574.22;4862194;29;20219;-84
2021/12/14 01:26:49;;;;;;;79.43;9.27;;;;;;;2.69;100.00;96575.03;4849158;29;20307;-84
2021/12/14 01:29:18;;;;;;;76.13;11.33;;;;;;;2.74;100.00;96582.50;4866802;29;20239;-84
2021/12/14 01:31:49;;;;;;;200.57;15.70;;;;;;;2.66;100.00;96579.50;4866206;29;20190;-84
2021/12/14 01:34:27;;;;;;;99.70;11.03;;;;;;;2.68;100.00;96577.69;4866216;29;20748;-84
2021/12/14 01:36:58;;;;;;;121.27;11.07;;;;;;;2.72;100.00;96579.19;4882835;29;20575;-83
2021/12/14 01:39:48;;;;;;;37.77;8.63;;;;;;;2.77;100.00;96582.38;4866244;29;20184;-84
2021/12/14 01:42:25;;;;;;;66.50;9.93;;;;;;;2.71;100.00;96574.97;4883220;29;20238;-83
2021/12/14 01:44:59;;;;;;;88.53;10.73;;;;;;;2.72;100.00;96568.91;4865962;29;20691;-84
2021/12/14 01:47:29;;;;;;;40.37;8.60;;;;;;;2.74;100.00;96562.84;4847631;29;20219;-84
2021/12/14 01:49:57;;;;;;;38.93;9.10;;;;;;;2.82;100.00;96572.69;4862579;29;20204;-84
2021/12/14 01:52:32;;;;;;;34.80;8.50;;;;;;;2.83;100.00;96576.94;4862490;29;20200;-85
2021/12/14 01:55:05;;;;;;;129.90;11.73;;;;;;;2.81;100.00;96571.03;4863007;29;20203;-84
2021/12/14 01:57:34;;;;;;;33.90;7.87;;;;;;;2.86;100.00;96575.94;4862668;29;20207;-84
2021/12/14 02:00:05;;;;;;;68.33;10.40;;;;;;;2.88;100.00;96574.97;4863557;29;20188;-84
2021/12/14 02:02:42;;;;;;;124.83;13.80;;;;;;;2.90;100.00;96567.19;4847595;29;21006;-84
2021/12/14 02:05:26;;;;;;;129.40;12.47;;;;;;;2.87;100.00;96569.91;4863626;29;20286;-84
2021/12/14 02:08:07;;;;;;;69.70;8.60;;;;;;;2.92;100.00;96568.78;4862328;29;20223;-84
2021/12/14 02:10:38;;;;;;;50.30;8.60;;;;;;;2.92;100.00;96561.09;4863482;29;20223;-84
2021/12/14 02:13:09;;;;;;;47.03;7.67;;;;;;;2.94;100.00;96559.28;4862131;29;20245;-84
2021/12/14 02:15:43;;;;;;;45.17;8.03;;;;;;;2.97;100.00;96565.97;4863109;29;20628;-84
2021/12/14 02:18:17;;;;;;;41.43;7.93;;;;;;;2.95;100.00;96560.94;4863183;29;20185;-84
2021/12/14 02:20:58;;;;;;;21.17;7.90;;;;;;;2.98;100.00;96565.06;4862828;29;20180;-84
2021/12/14 02:23:24;;;;;;;61.50;9.73;;;;;;;2.99;100.00;96561.59;4877131;29;20202;-84
2021/12/14 02:26:02;;;;;;;60.97;10.23;;;;;;;3.00;100.00;96569.22;4865220;29;20224;-84
2021/12/14 02:28:36;;;;;;;37.63;8.10;;;;;;;3.02;100.00;96564.84;4865392;29;20629;-84
2021/12/14 02:31:13;;;;;;;25.97;7.97;;;;;;;3.03;100.00;96566.50;4882506;29;20714;-84
2021/12/14 02:33:42;;;;;;;50.00;8.80;;;;;;;3.05;100.00;96567.25;4881203;29;20179;-84
2021/12/14 02:36:19;;;;;;;79.30;9.47;;;;;;;3.06;100.00;96561.22;4881064;29;20176;-83
2021/12/14 02:39:06;;;;;;;21.07;5.43;;;;;;;3.05;100.00;96561.28;4865542;29;20661;-84
2021/12/14 02:41:34;;;;;;;21.27;5.90;;;;;;;3.01;100.00;96564.94;4866483;29;20188;-84
2021/12/14 02:44:10;;;;;;;27.37;7.43;;;;;;;2.90;100.00;96562.06;4864939;29;20223;-83
2021/12/14 02:46:52;;;;;;;70.83;7.80;;;;;;;2.82;100.00;96565.81;4864131;29;20683;-83
2021/12/14 02:49:25;;;;;;;17.93;5.03;;;;;;;2.84;100.00;96558.06;4866319;29;20223;-84
2021/12/14 02:52:01;;;;;;;38.40;6.37;;;;;;;2.81;100.00;96558.22;4865520;29;20191;-84
2021/12/14 02:54:52;;;;;;;50.67;9.00;;;;;;;2.80;100.00;96551.41;4882069;29;20195;-83
2021/12/14 02:57:29;;;;;;;56.63;8.37;;;;;;;2.73;100.00;96550.06;4897229;29;20251;-83
2021/12/14 03:00:13;;;;;;;26.27;5.67;;;;;;;2.76;100.00;96548.19;4880911;29;20660;-84
2021/12/14 03:02:47;;;;;;;51.50;5.80;;;;;;;2.76;100.00;96549.94;4866342;29;20275;-84
2021/12/14 03:05:27;;;;;;;27.07;5.20;;;;;;;2.73;100.00;96550.06;4880871;29;20202;-85
2021/12/14 03:07:56;;;;;;;18.50;4.10;;;;;;;2.70;100.00;96534.81;4865045;29;20215;-85
2021/12/14 03:10:36;;;;;;;43.87;4.83;;;;;;;2.61;100.00;96536.09;4880667;29;20508;-85
2021/12/14 03:13:15;;;;;;;56.00;5.20;;;;;;;2.60;100.00;96538.75;4866104;29;20615;-84
2021/12/14 03:15:52;;;;;;;72.13;5.83;;;;;;;2.57;100.00;96541.47;4866016;29;20301;-85
2021/12/14 03:18:32;;;;;;;38.40;5.27;;;;;;;2.62;100.00;96547.19;4865092;29;20187;-84
2021/12/14 03:21:04;;;;;;;105.23;7.53;;;;;;;2.38;100.00;96547.47;4865238;29;20179;-84
2021/12/14 03:23:49;;;;;;;54.73;5.17;;;;;;;2.40;100.00;96550.81;4863085;29;20774;-84
2021/12/14 03:26:28;;;;;;;31.87;3.73;;;;;;;2.39;100.00;96544.03;4880746;29;20226;-84
2021/12/14 03:29:07;;;;;;;17.90;3.10;;;;;;;2.38;100.00;96560.28;4873262;29;20249;-84
2021/12/14 03:31:57;;;;;;;68.90;6.47;;;;;;;2.29;100.00;96558.16;4864610;29;20205;-84
2021/12/14 03:34:29;;;;;;;32.23;4.20;;;;;;;2.33;100.00;96571.69;4879362;29;20564;-84
2021/12/14 03:37:05;;;;;;;19.30;4.67;;;;;;;2.36;100.00;96576.66;4881003;29;20639;-85
2021/12/14 03:39:39;;;;;;;77.53;6.40;;;;;;;2.32;100.00;96567.47;4865158;29;20198;-85
2021/12/14 03:42:12;;;;;;;63.27;7.80;;;;;;;2.31;100.00;96570.91;4879737;29;20256;-85
2021/12/14 03:44:41;;;;;;;42.40;4.60;;;;;;;2.14;100.00;96571.72;4864998;29;20219;-85
2021/12/14 03:47:16;;;;;;;48.17;4.87;;;;;;;2.07;100.00;96578.00;4880292;29;20211;-85
2021/12/14 03:49:59;;;;;;;28.40;4.60;;;;;;;2.11;100.00;96574.41;4864904;29;20190;-85
2021/12/14 03:52:45;;;;;;;79.63;6.23;;;;;;;2.07;100.00;96583.13;4864402;29;20219;-85
2021/12/14 03:55:34;;;;;;;54.67;5.27;;;;;;;2.06;100.00;96584.03;4881248;29;20687;-85
2021/12/14 03:58:00;;;;;;;358.10;17.60;;;;;;;2.03;100.00;96572.19;4865716;29;20224;-83
2021/12/14 04:00:50;;;;;;;448.13;24.10;;;;;;;1.87;100.00;96555.88;4880380;29;20227;-84
2021/12/14 04:03:25;;;;;;;133.70;9.10;;;;;;;1.85;100.00;96550.81;4871655;29;20266;-84
2021/12/14 04:05:51;;;;;;;74.03;5.63;;;;;;;1.96;100.00;96555.47;4885980;29;20218;-85
2021/12/14 04:08:24;;;;;;;102.10;7.67;;;;;;;1.98;100.00;96549.34;4876304;29;20187;-85
2021/12/14 04:10:52;;;;;;;92.50;6.97;;;;;;;1.93;100.00;96542.78;4884956;29;20184;-85
2021/12/14 04:13:31;;;;;;;14.33;4.00;;;;;;;1.93;100.00;96538.47;4869037;29;20202;-84
2021/12/14 04:16:09;;;;;;;22.00;4.20;;;;;;;1.95;100.00;96546.13;4870281;29;20263;-84
2021/12/14 04:18:37;;;;;;;20.67;4.10;;;;;;;1.91;100.00;96542.84;4870489;29;20182;-84
2021/12/14 04:21:06;;;;;;;7.53;2.73;;;;;;;1.94;100.00;96542.72;4886522;29;20231;-84
2021/12/14 04:23:46;;;;;;;7.90;3.63;;;;;;;1.94;100.00;96535.03;4869781;29;20179;-84
2021/12/14 04:26:14;;;;;;;9.93;2.77;;;;;;;1.95;100.00;96530.75;4886379;29;20194;-84
2021/12/14 04:28:48;;;;;;;15.07;3.23;;;;;;;1.86;100.00;96532.00;4885839;29;20176;-85
2021/12/14 04:31:17;;;;;;;10.47;2.60;;;;;;;1.93;100.00;96532.53;4901789;29;20226;-84
2021/12/14 04:33:49;;;;;;;8.80;2.93;;;;;;;1.89;100.00;96520.78;4869616;29;20183;-84
2021/12/14 04:36:36;;;;;;;15.60;3.20;;;;;;;1.78;100.00;96508.47;4885352;29;20551;-83
2021/12/14 04:54:03;;;;;;;53.63;5.47;;;;;;;1.20;100.00;96498.28;4888639;29;20190;-83
2021/12/14 04:56:35;;;;;;;12.80;4.93;;;;;;;1.24;100.00;96497.25;4871464;29;20185;-83
2021/12/14 04:59:19;;;;;;;34.80;6.33;;;;;;;1.08;100.00;96484.31;4869587;29;20719;-82
2021/12/14 05:01:51;;;;;;;23.73;6.13;;;;;;;1.22;100.00;96467.50;4868524;29;20183;-84
2021/12/14 05:04:21;;;;;;;7.37;4.50;;;;;;;1.12;100.00;96482.44;4884178;29;20204;-85
2021/12/14 05:06:55;;;;;;;45.10;4.90;;;;;;;0.78;100.00;96514.56;4869098;29;20211;-85
2021/12/14 05:09:27;;;;;;;7.23;2.67;;;;;;;0.85;100.00;96522.81;4869865;29;20198;-85
2021/12/14 05:12:06;;;;;;;2.00;1.80;;;;;;;0.93;100.00;96512.25;4868455;29;20187;-84
2021/12/14 05:14:43;;;;;;;2.40;2.20;;;;;;;1.05;100.00;96529.63;4869112;29;20219;-84
2021/12/14 05:17:14;;;;;;;179.27;14.10;;;;;;;0.97;100.00;96532.53;4868957;29;20183;-84
2021/12/14 05:19:46;;;;;;;428.80;27.90;;;;;;;0.99;100.00;96537.59;4866571;29;20654;-84
2021/12/14 05:22:37;;;;;;;296.97;31.60;;;;;;;1.07;100.00;96522.75;4862991;29;20223;-85
2021/12/14 05:25:18;;;;;;;240.87;19.77;;;;;;;1.18;100.00;96502.63;4879002;29;20293;-85
2021/12/14 05:27:52;;;;;;;136.73;10.13;;;;;;;1.23;100.00;96504.97;4879121;29;20688;-84
2021/12/14 05:30:25;;;;;;;67.30;6.70;;;;;;;1.33;100.00;96508.81;4878059;29;20776;-84
2021/12/14 05:32:59;;;;;;;38.73;5.10;;;;;;;1.30;100.00;96504.66;4863490;29;20192;-84
2021/12/14 05:35:25;;;;;;;186.07;13.17;;;;;;;1.24;100.00;96497.25;4864202;29;20207;-85
2021/12/14 05:37:58;;;;;;;130.80;9.53;;;;;;;1.17;100.00;96495.88;4878979;29;20176;-85
2021/12/14 05:43:05;;;;;;;72.27;6.27;;;;;;;1.19;100.00;96506.03;4879717;29;20183;-85
2021/12/14 05:43:18;;;;;;;299.33;16.87;;;;;;;1.04;100.00;96510.06;4873438;29;20278;-84
2021/12/14 05:45:51;;;;;;;124.80;8.37;;;;;;;1.03;100.00;96521.19;4882413;29;20668;-83
2021/12/14 05:48:33;;;;;;;153.73;10.30;;;;;;;0.86;100.00;96501.47;4882611;29;20194;-83
2021/12/14 05:51:02;;;;;;;129.23;9.07;;;;;;;0.84;100.00;96496.41;4866363;29;20195;-83
2021/12/14 05:53:34;;;;;;;31.40;6.77;;;;;;;0.89;100.00;96492.84;4865139;29;20191;-83
2021/12/14 05:56:01;;;;;;;24.67;6.27;;;;;;;0.82;100.00;96484.59;4866428;29;20183;-83
2021/12/14 05:58:27;;;;;;;14.30;4.23;;;;;;;0.76;100.00;96488.25;4882144;29;20191;-83
2021/12/14 06:00:58;;;;;;;3.63;2.80;;;;;;;0.74;100.00;96477.25;4881886;29;20211;-84
2021/12/14 06:03:36;;;;;;;16.00;3.00;;;;;;;0.74;100.00;96484.94;4866168;29;20270;-84
2021/12/14 06:06:05;;;;;;;4.03;2.27;;;;;;;0.79;100.00;96470.19;4881872;29;20218;-84
2021/12/14 06:08:36;;;;;;;2.20;2.00;;;;;;;0.74;100.00;96484.09;4882059;29;20187;-84
2021/12/14 06:11:20;;;;;;;2.20;2.00;;;;;;;0.66;100.00;96486.97;4882199;29;20179;-84
2021/12/14 06:13:49;;;;;;;1.63;1.53;;;;;;;0.79;100.00;96459.16;4880857;29;20183;-83
2021/12/14 06:17:00;;;;;;;1.70;1.60;;;;;;;0.68;100.00;96459.59;4878170;29;20194;-83
2021/12/14 06:19:28;;;;;;;1.57;1.47;;;;;;;0.60;100.00;96454.00;4880248;29;20814;-82
2021/12/14 06:22:03;;;;;;;2.07;1.90;;;;;;;0.52;100.00;96456.03;4895026;29;20198;-83
2021/12/14 06:24:30;;;;;;;2.20;1.80;;;;;;;0.66;100.00;96463.13;4893235;29;20195;-83
2021/12/14 06:27:00;;;;;;;2.17;1.97;;;;;;;0.82;100.00;96470.09;4893115;29;20298;-83
2021/12/14 06:29:29;;;;;;;2.03;1.70;;;;;;;0.89;100.00;96470.66;4878682;29;20667;-81
2021/12/14 06:31:56;;;;;;;2.63;1.70;;;;;;;0.96;100.00;96471.19;4897467;29;20750;-82
2021/12/14 06:34:27;;;;;;;1.70;1.60;;;;;;;0.81;100.00;96478.66;4878399;29;20219;-83
2021/12/14 06:37:02;;;;;;;3.77;3.10;;;;;;;0.91;100.00;96458.63;4877568;29;20183;-82
2021/12/14 06:39:27;;;;;;;3.20;2.67;;;;;;;0.94;100.00;96458.50;4892932;29;20209;-83
2021/12/14 06:42:11;;;;;;;2.20;2.00;;;;;;;1.00;100.00;96455.69;4865285;29;20183;-86
2021/12/14 06:44:36;;;;;;;1.73;1.63;;;;;;;1.21;100.00;96450.50;4881596;29;20218;-84
2021/12/14 06:47:01;;;;;;;2.10;1.63;;;;;;;1.21;100.00;96443.66;4881208;29;20576;-82
2021/12/14 06:49:27;;;;;;;3.47;1.90;;;;;;;1.27;100.00;96451.06;4877653;29;20241;-82
2021/12/14 06:51:56;;;;;;;1.63;1.50;;;;;;;1.31;100.00;96447.44;4881416;29;20207;-84
2021/12/14 06:54:26;;;;;;;2.23;1.60;;;;;;;1.38;100.00;96443.72;4881215;29;20218;-83
2021/12/14 06:56:55;;;;;;;1.90;1.67;;;;;;;1.41;100.00;96442.75;4880950;29;20192;-83
2021/12/14 06:59:33;;;;;;;2.07;1.60;;;;;;;1.54;100.00;96437.91;4880659;29;20203;-84
2021/12/14 07:02:05;;;;;;;1.60;1.47;;;;;;;1.63;100.00;96432.34;4880228;29;20195;-84
2021/12/14 07:04:33;;;;;;;2.63;1.27;;;;;;;1.75;100.00;96436.06;4883182;29;20734;-83
2021/12/14 07:07:00;;;;;;;1.80;1.70;;;;;;;1.77;100.00;96429.13;4881250;29;20221;-85
2021/12/14 07:09:38;;;;;;;1.83;1.40;;;;;;;1.81;100.00;96428.91;4896346;29;20561;-82
2021/12/14 07:12:12;;;;;;;1.53;1.40;;;;;;;1.83;100.00;96427.09;4879232;29;20247;-83
2021/12/14 07:14:48;;;;;;;2.93;2.67;;;;;;;1.87;100.00;96438.06;4881028;29;20634;-83
2021/12/14 07:17:18;;;;;;;1.93;1.57;;;;;;;1.98;100.00;96449.44;4898226;29;20234;-80
2021/12/14 07:19:53;;;;;;;1.70;1.57;;;;;;;2.14;100.00;96457.22;4903375;29;20211;-81
2021/12/14 07:22:30;;;;;;;3.17;2.83;;;;;;;2.19;100.00;96465.50;4892579;29;20183;-84
2021/12/14 07:25:08;;;;;;;6.40;5.73;;;;;;;2.18;100.00;96471.53;4882089;29;20547;-82
2021/12/14 07:27:43;;;;;;;5.60;4.17;;;;;;;2.05;100.00;96470.47;4888233;29;20207;-84
2021/12/14 07:30:17;;;;;;;11.47;9.00;;;;;;;1.92;100.00;96480.47;4884816;29;20216;-83
2021/12/14 07:32:53;;;;;;;6.27;5.30;;;;;;;1.88;100.00;96466.16;4881290;29;20195;-83
2021/12/14 07:38:14;;;;;;;5.53;4.97;;;;;;;1.94;100.00;96463.31;5158187;23;20249;-82
2021/12/14 07:40:42;;;;;;;6.00;4.13;;;;;;;2.02;100.00;96455.22;4904139;29;20612;-83
2021/12/14 07:43:44;;;;;;;3.93;3.53;;;;;;;2.23;100.00;96458.50;4891554;29;20187;-85
2021/12/14 07:46:31;;;;;;;4.53;2.30;;;;;;;2.52;100.00;96463.03;4819949;29;20218;-83
2021/12/14 07:49:21;;;;;;;2.63;2.23;;;;;;;2.78;100.00;96466.84;4808852;29;20194;-83
2021/12/14 07:51:48;;;;;;;4.33;2.10;;;;;;;3.05;100.00;96472.31;4810093;29;20586;-83
2021/12/14 07:54:19;;;;;;;3.07;2.53;;;;;;;2.97;100.00;96494.97;4791644;29;20218;-83
2021/12/14 07:56:47;;;;;;;3.40;2.70;;;;;;;2.82;100.00;96506.00;4777101;29;20289;-82
2021/12/14 07:59:23;;;;;;;3.00;2.67;;;;;;;2.70;100.00;96510.00;4808556;29;20193;-83
2021/12/14 08:01:52;;;;;;;2.47;2.17;;;;;;;2.35;100.00;96518.59;4821341;29;20194;-82
2021/12/14 08:04:17;;;;;;;3.37;1.90;;;;;;;2.11;100.00;96531.66;4804376;29;20233;-85
2021/12/14 08:06:48;;;;;;;2.53;2.33;;;;;;;2.12;100.00;96545.31;4790739;29;20726;-84
2021/12/14 08:09:17;;;;;;;3.30;3.00;;;;;;;2.14;100.00;96556.34;4808616;29;20571;-84
2021/12/14 08:11:49;;;;;;;2.97;2.67;;;;;;;2.06;100.00;96558.41;4822694;29;20193;-83
2021/12/14 08:14:19;;;;;;;2.87;2.67;;;;;;;2.09;100.00;96569.34;4809648;29;20302;-82
2021/12/14 08:16:51;;;;;;;3.60;3.30;;;;;;;2.11;100.00;96552.16;4805454;29;20195;-84
2021/12/14 08:19:38;;;;;;;4.60;4.10;;;;;;;2.12;100.00;96553.00;4811579;29;20194;-84
2021/12/14 08:22:13;;;;;;;7.07;5.60;;;;;;;2.21;100.00;96540.59;4825331;29;20245;-83
2021/12/14 08:24:39;;;;;;;6.80;6.10;;;;;;;2.27;100.00;96534.34;4868546;29;20552;-80
2021/12/14 08:27:07;;;;;;;6.53;5.83;;;;;;;2.27;100.00;96526.66;4883214;29;20211;-82
2021/12/14 08:29:34;;;;;;;6.37;4.93;;;;;;;2.43;100.00;96519.88;4879736;29;20323;-83
2021/12/14 08:32:22;;;;;;;7.57;6.57;;;;;;;2.49;100.00;96517.03;4897153;29;20194;-83
2021/12/14 08:34:48;;;;;;;8.13;7.07;;;;;;;2.76;100.00;96519.16;4882909;29;20290;-82
2021/12/14 08:37:27;;;;;;;9.43;7.60;;;;;;;2.81;100.00;96522.28;4882255;29;20193;-83
2021/12/14 08:40:08;;;;;;;4.43;3.47;;;;;;;2.84;100.00;96517.03;4875301;29;20207;-85
2021/12/14 08:42:51;;;;;;;3.77;3.30;;;;;;;2.94;100.00;96513.09;4879131;29;20188;-85
2021/12/14 08:45:25;;;;;;;4.47;4.07;;;;;;;3.04;100.00;96523.72;4865781;29;20208;-84
2021/12/14 08:48:02;;;;;;;3.67;3.27;;;;;;;3.16;100.00;96527.38;4864054;29;20220;-83
2021/12/14 08:50:29;;;;;;;3.70;3.27;;;;;;;3.11;100.00;96525.91;4893190;29;20188;-84
2021/12/14 08:52:54;;;;;;;3.27;2.60;;;;;;;3.18;100.00;96535.81;4866332;29;20207;-82
2021/12/14 08:55:23;;;;;;;3.27;2.63;;;;;;;3.03;100.00;96534.88;4866048;29;20598;-83
2021/12/14 08:57:48;;;;;;;4.53;3.07;;;;;;;3.19;100.00;96532.38;4866403;29;20681;-83
2021/12/14 09:00:20;;;;;;;3.77;3.40;;;;;;;3.25;100.00;96537.19;4881867;29;20216;-83
2021/12/14 09:02:46;;;;;;;8.83;4.83;;;;;;;3.15;100.00;96533.44;4865544;29;20278;-82
2021/12/14 09:05:20;;;;;;;24.90;6.20;;;;;;;3.22;100.00;96533.03;4877511;29;20645;-82
2021/12/14 09:07:45;;;;;;;172.50;13.43;;;;;;;2.98;100.00;96526.59;4877609;29;20210;-83
2021/12/14 09:10:14;;;;;;;88.43;9.10;;;;;;;3.04;100.00;96533.97;4864376;29;20192;-83
2021/12/14 09:12:42;;;;;;;14.73;6.93;;;;;;;3.27;100.00;96548.19;4880340;29;20222;-85
2021/12/14 09:15:16;;;;;;;78.20;9.90;;;;;;;3.29;100.00;96549.78;4877124;29;20207;-82
2021/12/14 09:17:42;;;;;;;48.47;9.13;;;;;;;3.28;100.00;96549.88;4896787;29;20207;-84
2021/12/14 09:20:11;;;;;;;173.67;14.40;;;;;;;3.16;100.00;96535.09;4881502;29;20266;-83
2021/12/14 09:22:41;;;;;;;139.87;13.43;;;;;;;3.22;100.00;96547.63;4881028;29;20206;-82
2021/12/14 09:25:12;;;;;;;19.77;9.57;;;;;;;3.49;100.00;96542.78;4896633;29;20216;-82
2021/12/14 09:27:38;;;;;;;148.20;11.47;;;;;;;3.48;100.00;96544.53;4881305;29;20688;-83
2021/12/14 09:30:06;;;;;;;201.63;13.80;;;;;;;3.34;100.00;96539.28;4881521;29;20189;-83
2021/12/14 09:32:34;;;;;;;161.67;14.13;;;;;;;3.46;100.00;96536.09;4880084;29;20271;-83
2021/12/14 09:35:00;;;;;;;21.83;7.53;;;;;;;3.72;100.00;96544.16;4881443;29;20219;-83
2021/12/14 09:37:28;;;;;;;65.07;9.00;;;;;;;3.75;100.00;96551.69;4860357;29;20632;-83
2021/12/14 09:39:57;;;;;;;146.63;11.83;;;;;;;3.67;100.00;96560.63;4862622;29;20633;-82
2021/12/14 09:42:26;;;;;;;255.40;14.47;;;;;;;3.60;100.00;96548.19;4867212;29;20274;-83
2021/12/14 09:44:54;;;;;;;108.33;10.03;;;;;;;3.68;100.00;96546.88;4881549;29;20214;-83
2021/12/14 09:47:26;;;;;;;55.10;6.80;;;;;;;3.76;100.00;96553.34;4865149;29;20234;-83
2021/12/14 09:49:53;;;;;;;38.93;6.10;;;;;;;3.68;100.00;96554.56;4880696;29;20294;-83
2021/12/14 09:52:35;;;;;;;165.90;11.83;;;;;;;3.67;100.00;96559.81;4864262;29;20219;-84
2021/12/14 09:55:07;;;;;;;135.90;10.23;;;;;;;3.74;100.00;96562.88;4893867;29;20607;-84
2021/12/14 09:57:36;;;;;;;110.47;9.67;;;;;;;3.67;100.00;96547.78;4864876;29;20631;-82
2021/12/14 10:00:12;;;;;;;195.53;13.17;;;;;;;3.73;100.00;96549.22;4879812;29;20191;-82
2021/12/14 10:02:39;;;;;;;270.63;14.67;;;;;;;3.63;100.00;96555.75;4891984;29;20300;-82
2021/12/14 10:05:18;;;;;;;160.13;10.83;;;;;;;3.55;100.00;96547.63;4850932;29;20213;-83
2021/12/14 10:07:43;;;;;;;329.57;17.80;;;;;;;3.38;100.00;96554.44;4862321;29;20296;-84
2021/12/14 10:10:13;;;;;;;22.03;5.30;;;;;;;3.75;100.00;96554.25;4880351;29;20726;-83
2021/12/14 10:12:49;;;;;;;18.60;5.90;;;;;;;3.90;100.00;96554.28;4880060;29;20197;-82
2021/12/14 10:15:21;;;;;;;266.67;15.83;;;;;;;3.94;100.00;96552.38;4863815;29;20212;-82
2021/12/14 10:17:47;;;;;;;46.87;8.00;;;;;;;4.18;100.00;96545.91;4862211;29;20649;-82
2021/12/14 10:20:16;;;;;;;60.47;7.33;;;;;;;4.27;99.98;96552.28;4854605;29;20648;-84
2021/12/14 10:22:42;;;;;;;331.60;18.07;;;;;;;4.01;99.33;96545.16;4863937;29;20235;-83
2021/12/14 10:25:14;;;;;;;94.70;7.87;;;;;;;4.08;100.00;96542.19;4880230;29;20207;-83
2021/12/14 10:27:39;;;;;;;21.70;5.93;;;;;;;4.12;100.00;96548.78;4880809;29;20702;-85
2021/12/14 10:30:14;;;;;;;54.70;8.63;;;;;;;4.24;100.00;96540.44;4880687;29;20222;-83
2021/12/14 10:32:40;;;;;;;87.90;10.73;;;;;;;4.26;100.00;96542.91;4879498;29;20201;-83
2021/12/14 10:35:13;;;;;;;67.10;9.73;;;;;;;4.33;99.25;96538.22;4866581;29;20215;-82
2021/12/14 10:37:55;;;;;;;25.60;8.40;;;;;;;4.52;99.66;96536.31;4905231;29;20190;-82
2021/12/14 10:43:17;;;;;;;105.60;11.40;;;;;;;4.64;98.22;96543.31;4873677;29;20210;-82
2021/12/14 10:45:56;;;;;;;138.27;11.13;;;;;;;4.42;97.81;96532.59;4862451;29;20206;-82
2021/12/14 10:48:26;;;;;;;97.33;8.43;;;;;;;4.46;97.75;96536.66;4865155;29;20218;-83
2021/12/14 10:50:55;;;;;;;217.17;14.03;;;;;;;4.20;98.17;96541.50;4881340;29;20668;-82
2021/12/14 10:53:21;;;;;;;242.80;14.03;;;;;;;4.07;99.15;96537.94;4880396;29;20524;-83
2021/12/14 10:55:51;;;;;;;89.10;10.43;;;;;;;4.32;99.77;96531.44;4881597;29;20213;-83
2021/12/14 10:58:18;;;;;;;31.47;8.90;;;;;;;4.52;99.34;96533.75;4880565;29;20659;-84
2021/12/14 11:00:47;;;;;;;27.77;9.33;;;;;;;4.58;99.01;96530.81;4880929;29;20254;-84
2021/12/14 11:03:17;;;;;;;21.70;8.87;;;;;;;4.58;99.19;96533.38;4880477;29;20188;-83
2021/12/14 11:05:46;;;;;;;12.53;8.80;;;;;;;4.67;99.11;96525.13;4880544;29;20203;-83
2021/12/14 11:08:24;;;;;;;16.47;8.20;;;;;;;4.72;98.33;96528.28;4895966;29;20227;-84
2021/12/14 11:10:52;;;;;;;33.70;9.17;;;;;;;4.82;98.03;96539.69;4882695;29;20269;-83
2021/12/14 11:13:18;;;;;;;52.57;8.97;;;;;;;4.70;97.77;96543.00;4878617;29;20193;-83
2021/12/14 11:15:47;;;;;;;57.83;7.77;;;;;;;4.79;97.82;96545.03;4879526;29;20293;-83
2021/12/14 11:18:27;;;;;;;145.90;14.10;;;;;;;4.70;98.73;96537.84;4865541;29;20549;-85
2021/12/14 11:20:58;;;;;;;82.50;11.87;;;;;;;4.84;96.68;96526.75;4864940;29;20193;-82
2021/12/14 11:23:26;;;;;;;47.40;11.33;;;;;;;4.71;97.45;96518.91;4879220;29;20246;-83
2021/12/14 11:25:51;;;;;;;80.47;16.97;;;;;;;4.55;98.48;96521.53;4880436;29;20199;-85
2021/12/14 11:28:22;;;;;;;73.30;11.87;;;;;;;4.67;98.37;96532.03;4880619;29;20205;-84
2021/12/14 11:30:54;;;;;;;109.77;13.57;;;;;;;4.75;97.96;96535.81;4864136;29;20192;-83
2021/12/14 11:33:27;;;;;;;43.03;15.00;;;;;;;4.83;97.88;96531.06;4871911;29;20693;-84
2021/12/14 11:35:58;;;;;;;83.03;10.50;;;;;;;5.01;96.46;96529.16;4876613;29;20211;-83
2021/12/14 11:38:54;;;;;;;48.03;9.60;;;;;;;4.88;97.66;96529.97;4895342;29;20289;-83
2021/12/14 11:41:40;;;;;;;22.53;8.83;;;;;;;4.79;97.85;96523.63;4895121;29;20207;-81
2021/12/14 11:44:13;;;;;;;16.00;7.33;;;;;;;4.79;98.50;96527.03;4880462;29;20218;-83
2021/12/14 11:47:02;;;;;;;14.60;9.27;;;;;;;4.93;98.21;96530.53;4879257;29;20195;-83
2021/12/14 11:49:42;;;;;;;40.60;14.93;;;;;;;4.93;97.84;96526.19;4880127;29;20223;-83
2021/12/14 11:52:08;;;;;;;12.07;8.50;;;;;;;4.88;98.19;96532.56;4879181;29;20564;-84
2021/12/14 11:54:46;;;;;;;49.43;13.60;;;;;;;4.98;98.52;96531.94;4862825;29;20761;-82
2021/12/14 11:57:12;;;;;;;37.37;12.13;;;;;;;4.94;98.83;96538.16;4871771;29;20202;-85
2021/12/14 11:59:38;;;;;;;74.03;10.70;;;;;;;4.82;98.67;96531.16;4876783;29;20332;-85
2021/12/14 12:02:04;;;;;;;59.43;10.53;;;;;;;4.79;98.40;96539.88;4884532;29;20731;-84
2021/12/14 12:04:35;;;;;;;58.67;9.30;;;;;;;4.56;99.92;96545.50;4857521;29;20207;-84
2021/12/14 12:09:41;;;;;;;298.20;18.57;;;;;;;4.12;100.00;96545.41;4879425;29;20186;-84
2021/12/14 12:12:06;;;;;;;456.67;25.73;;;;;;;4.11;100.00;96544.56;4879332;29;20366;-84
2021/12/14 12:15:08;;;;;;;425.33;25.43;;;;;;;3.98;100.00;96534.16;4896199;29;20316;-84
2021/12/14 12:17:38;;;;;;;236.07;17.67;;;;;;;4.18;100.00;96522.75;4805732;29;20189;-83
2021/12/14 12:20:31;;;;;;;161.83;14.90;;;;;;;4.25;100.00;96529.22;4805735;29;20327;-83
2021/12/14 12:23:09;;;;;;;173.23;15.87;;;;;;;4.37;100.00;96526.88;4822118;29;20610;-82